MAUNA LOA HI US current weather conditions

sailwx.info

Wind from 005 at 9 knots gusting 19

Air temperature 20.0° C
Dewpoint 10.7° C

Last reported at 2014-Oct-31 19:34 UTC.
Time now 2014-Nov-01 12:26 UTC

Location: N 19°28' W 155°22'.
View on Google Maps.

See reports from other nearby stations

  
Tides and Currents Weather Stations Pressure Air Temp Water Temp Dewpoint Dewpoint Depression Visibility Wind Speed Wind Dir Waves Ship Positions
date/time (UTC)wind fromknots sea level pressurealtimeterstation pressurevisibilityair tempwater tempwave heightnotes
2014-Oct-31 19:34 005 9 gusting 19 20.0
2014-Oct-31 18:34 342 6 gusting 17 18.9
2014-Oct-31 17:34 347 6 gusting 13 16.7
2014-Oct-31 16:34 330 6 gusting 13 12.2
2014-Oct-31 15:34 342 6 gusting 13 11.7
2014-Oct-31 14:34 355 6 gusting 19 12.2
2014-Oct-31 13:34 021 6 gusting 14 12.8
2014-Oct-31 12:34 356 3 gusting 13 13.3
2014-Oct-31 11:34 346 6 gusting 15 12.2
2014-Oct-31 10:34 349 6 gusting 14 13.3
2014-Oct-31 09:34 331 6 gusting 14 12.8
2014-Oct-31 08:34 001 6 gusting 15 13.3
2014-Oct-31 07:34 339 8 gusting 18 13.3
2014-Oct-31 06:34 318 7 gusting 18 13.3
2014-Oct-31 05:34 344 6 gusting 16 13.3
2014-Oct-31 04:34 002 8 gusting 19 13.3
2014-Oct-31 03:34 005 9 gusting 19 14.4
2014-Oct-31 02:34 356 8 gusting 19 18.3
2014-Oct-31 01:34 001 11 gusting 22 20.6
2014-Oct-31 00:34 005 12 gusting 21 21.7
2014-Oct-30 23:34 009 10 gusting 19 23.3
2014-Oct-30 22:34 005 6 gusting 17 26.7
2014-Oct-30 21:34 002 8 gusting 18 26.1
2014-Oct-30 20:34 346 7 gusting 16 25.6
2014-Oct-30 19:34 357 6 gusting 15 23.3
2014-Oct-30 18:34 346 5 gusting 13 21.1
2014-Oct-30 17:34 327 3 gusting 12 16.1
2014-Oct-30 16:34 247 2 gusting 10 10.6
2014-Oct-30 15:34 308 6 gusting 10 11.7
2014-Oct-30 14:34 306 6 gusting 11 12.2
2014-Oct-30 13:34 303 6 gusting 13 12.8
2014-Oct-30 12:34 307 8 gusting 14 12.8